Data for 10/17/2005

Time Sea-Level Adjusted Pressure Absolute Pressure Temperature Relative Humidity Dew Point   
(mb) (inHg) (mb) (inHg) (C) (F) (%) (C) (F)
00:05 1020 30.12 849 25.07 11.1 51.9 41 -1.7 28.9
00:10 1020 30.12 849 25.07 10.9 51.6 42 -1.6 29.1
00:15 1020 30.12 849 25.07 10.8 51.4 42 -1.6 29.1
00:20 1020 30.12 849 25.07 10.8 51.4 43 -1.3 29.7
00:25 1020 30.12 849 25.07 10.9 51.6 42 -1.4 29.4
00:30 1020 30.12 849 25.07 11.2 52.1 41 -1.6 29.2
00:35 1020 30.12 849 25.07 11.1 52 43 -1 30.2
00:40 1020 30.12 849 25.07 10.9 51.6 42 -1.4 29.4
00:45 1020 30.12 849 25.07 11.1 52.1 42 -1.2 29.8
00:50 1020 30.12 849 25.07 11.1 51.9 44 -0.5 31
00:55 1020 30.12 849 25.07 10.3 50.6 48 -0.1 31.8
01:00 1020 30.12 849 25.07 9.9 49.9 48 -0.5 31.1
01:05 1020 30.12 849 25.07 10 49.9 48 -0.6 30.9
01:10 1020 30.12 849 25.07 10.1 50.2 46 -0.8 30.5
01:15 1020 30.12 849 25.07 10.3 50.5 43 -1.8 28.8
01:20 1020 30.12 849 25.07 10.7 51.3 42 -1.7 29
01:25 1020 30.12 849 25.07 10.9 51.6 42 -1.5 29.3
01:30 1020 30.12 849 25.07 11 51.8 41 -1.7 28.9
01:35 1020 30.12 849 25.07 11.1 52 42 -1.3 29.6
01:40 1020 30.12 849 25.07 11.3 52.3 41 -1.5 29.2
01:45 1020 30.12 849 25.07 11.6 52.9 42 -0.7 30.7
01:50 1020 30.12 849 25.07 11.1 52 43 -1.1 30.1
01:55 1020 30.12 849 25.07 11 51.7 43 -1.1 30.1
02:00 1020 30.12 849 25.07 10.8 51.5 43 -1.2 29.8
02:05 1020 30.12 849 25.07 10.9 51.6 43 -1.3 29.7
02:10 1020 30.12 849 25.07 11.1 52 42 -1.2 29.9
02:15 1020 30.12 849 25.07 11 51.8 43 -1.1 30
02:20 1020 30.12 849 25.07 11 51.9 43 -0.9 30.3
02:25 1020 30.12 849 25.07 10.9 51.6 44 -0.8 30.5
02:30 1020 30.12 849 25.07 10.9 51.6 44 -0.9 30.4
02:35 1020 30.12 849 25.07 10.8 51.4 45 -0.7 30.8
02:40 1020 30.12 849 25.07 10.6 51 46 -0.6 30.9
02:45 1020 30.12 849 25.07 10.4 50.7 46 -0.6 30.8
02:50 1020 30.12 849 25.07 9.9 49.9 50 -0 32
02:55 1020 30.12 849 25.07 8.7 47.7 55 0.2 32.3
03:00 1020 30.12 849 25.07 8 46.4 54 -0.7 30.7
03:05 1020 30.12 849 25.07 8.5 47.4 53 -0.5 31
03:10 1020 30.12 849 25.07 8.3 46.9 53 -0.6 30.9
03:15 1019 30.09 849 25.07 8.4 47 54 -0.5 31.2
03:20 1019 30.09 849 25.07 8.6 47.5 51 -0.8 30.5
03:25 1019 30.09 849 25.07 9.3 48.8 48 -1 30.2
03:30 1019 30.09 849 25.07 9.5 49.1 50 -0.3 31.4
03:35 1019 30.09 849 25.07 8.6 47.5 54 -0.2 31.6
03:40 1019 30.09 849 25.07 8.3 47 53 -0.6 31
03:45 1019 30.09 849 25.07 8.3 46.9 54 -0.5 31.1
03:50 1019 30.09 848 25.04 8.1 46.5 53 -0.8 30.5
03:55 1019 30.09 849 25.07 8.1 46.6 54 -0.7 30.8
04:00 1019 30.09 848 25.04 8.1 46.6 54 -0.7 30.8
04:05 1019 30.09 848 25.04 8.4 47.2 52 -0.8 30.5
04:10 1019 30.09 848 25.04 9.4 48.9 48 -1 30.2
04:15 1019 30.09 848 25.04 10.4 50.6 46 -0.7 30.7
04:20 1019 30.09 848 25.04 10.4 50.8 45 -1 30.2
04:25 1019 30.09 848 25.04 10.7 51.3 47 -0.2 31.6
04:30 1019 30.09 848 25.04 10.5 51 47 -0.3 31.4
04:35 1019 30.09 848 25.04 10.3 50.5 46 -0.7 30.8
04:40 1019 30.09 848 25.04 10.6 51 47 -0.3 31.4
04:45 1019 30.09 848 25.04 9.7 49.5 49 -0.5 31.1
04:50 1019 30.09 849 25.07 10.1 50.2 47 -0.7 30.7
04:55 1019 30.09 849 25.07 10.1 50.1 52 0.7 33.3
05:00 1019 30.09 848 25.04 8.8 47.9 51 -0.6 30.9
05:05 1019 30.09 848 25.04 8.9 48.1 54 0.2 32.3
05:10 1019 30.09 848 25.04 8.1 46.6 55 -0.4 31.3
05:15 1019 30.09 849 25.07 8.3 46.9 51 -1.1 30
05:20 1019 30.09 849 25.07 9.5 49.1 49 -0.5 31
05:25 1019 30.09 849 25.07 9.8 49.6 49 -0.5 31.1
05:30 1019 30.09 849 25.07 9.5 49.2 52 0.1 32.2
05:35 1019 30.09 849 25.07 8.2 46.8 56 -0 31.9
05:40 1019 30.09 849 25.07 8.1 46.5 55 -0.5 31.1
05:45 1020 30.12 849 25.07 8.6 47.5 52 -0.5 31
05:50 1020 30.12 849 25.07 9.1 48.3 52 -0.3 31.4
05:55 1020 30.12 849 25.07 9.5 49.1 51 -0 32
06:00 1020 30.12 849 25.07 7.8 46.1 58 0.1 32.2
06:05 1020 30.12 849 25.07 7.7 45.9 57 -0.3 31.4
06:10 1020 30.12 849 25.07 7.8 46.1 57 -0.2 31.6
06:15 1020 30.12 849 25.07 8.2 46.7 55 -0.3 31.5
06:20 1020 30.12 849 25.07 8 46.3 57 0.1 32.1
06:25 1020 30.12 849 25.07 7.6 45.7 58 -0.1 31.9
06:30 1019 30.09 849 25.07 8 46.5 55 -0.5 31
06:35 1019 30.09 849 25.07 8.1 46.6 55 -0.3 31.4
06:40 1019 30.09 848 25.04 8.1 46.6 60 1 33.8
06:45 1019 30.09 848 25.04 8 46.3 56 -0.3 31.4
06:50 1019 30.09 848 25.04 7.9 46.2 59 0.5 32.8
06:55 1019 30.09 848 25.04 7.4 45.2 61 0.4 32.8
07:00 1019 30.09 848 25.04 7.4 45.2 61 0.4 32.7
07:05 1019 30.09 848 25.04 6.9 44.4 62 0.1 32.2
07:10 1019 30.09 848 25.04 7.1 44.7 63 0.6 33
07:15 1019 30.09 848 25.04 6.6 43.8 63 0.1 32.2
07:20 1019 30.09 848 25.04 6.4 43.5 66 0.6 33.1
07:25 1019 30.09 848 25.04 6.5 43.6 65 0.5 32.8
07:30 1019 30.09 848 25.04 7 44.6 60 -0.1 31.8
07:35 1019 30.09 848 25.04 7.6 45.6 62 0.7 33.3
07:40 1019 30.09 848 25.04 7.5 45.5 61 0.6 33.1
07:45 1019 30.09 848 25.04 7.6 45.7 59 0.2 32.3
07:50 1019 30.09 848 25.04 7.9 46.2 59 0.4 32.7
07:55 1019 30.09 848 25.04 7.8 46.1 59 0.4 32.8
08:00 1019 30.09 848 25.04 7.6 45.7 61 0.7 33.3
08:05 1019 30.09 849 25.07 7.4 45.2 59 -0.2 31.7
08:10 1019 30.09 849 25.07 8.6 47.5 57 0.5 32.9
08:15 1019 30.09 849 25.07 8.9 48.1 53 -0.1 31.8
08:20 1019 30.09 849 25.07 10.3 50.5 50 0.4 32.8
08:25 1019 30.09 849 25.07 10.3 50.5 52 0.8 33.5
08:30 1019 30.09 849 25.07 10.4 50.8 49 0.3 32.6
08:35 1019 30.09 849 25.07 11.2 52.2 47 0.2 32.4
08:40 1019 30.09 849 25.07 11 51.7 50 1 33.9
08:45 1019 30.09 849 25.07 11.5 52.6 49 1.2 34.1
08:50 1019 30.09 849 25.07 11.2 52.1 50 1.2 34.1
08:55 1019 30.09 849 25.07 12.1 53.8 44 0.2 32.4
09:00 1019 30.09 849 25.07 13.2 55.7 42 0.7 33.3
09:05 1019 30.09 849 25.07 13.6 56.6 42 1.1 33.9
09:10 1019 30.09 849 25.07 13.9 56.9 41 0.9 33.7
09:15 1019 30.09 849 25.07 13.3 55.9 42 0.8 33.4
09:20 1019 30.09 849 25.07 13 55.5 43 1 33.7
09:25 1019 30.09 849 25.07 13 55.4 44 1.2 34.2
09:30 1019 30.09 849 25.07 13 55.5 45 1.3 34.4
09:35 1019 30.09 849 25.07 13.3 55.9 43 1 33.8
09:40 1020 30.12 849 25.07 13.6 56.5 42 1 33.9
09:45 1020 30.12 849 25.07 14.5 58 40 1.1 34
09:50 1020 30.12 849 25.07 14.8 58.6 39 1.1 34
09:55 1020 30.12 849 25.07 14.9 58.8 40 1.4 34.6
10:00 1020 30.12 849 25.07 15.3 59.5 38 1.1 33.9
10:05 1020 30.12 849 25.07 15.6 60 37 1.2 34.1
10:10 1020 30.12 849 25.07 16 60.9 36 1.2 34.1
10:15 1020 30.12 849 25.07 16.5 61.8 35 1.1 34
10:20 1020 30.12 849 25.07 16.4 61.5 37 1.6 35
10:25 1020 30.12 849 25.07 15.8 60.4 38 1.5 34.7
10:30 1020 30.12 849 25.07 16.2 61.2 36 1.3 34.3
10:35 1020 30.12 849 25.07 17 62.5 34 1.3 34.4
10:40 1020 30.12 849 25.07 17.5 63.5 32 0.7 33.3
10:45 1020 30.12 849 25.07 17.4 63.4 32 0.6 33
10:50 1019 30.09 849 25.07 17.7 63.9 32 0.9 33.6
10:55 1019 30.09 849 25.07 17.5 63.5 33 1 33.8
11:00 1020 30.12 849 25.07 17.8 64 32 1 33.9
11:05 1019 30.09 849 25.07 17.7 63.9 33 1.2 34.2
11:10 1019 30.09 849 25.07 18 64.3 32 1.2 34.1
11:15 1019 30.09 848 25.04 17.7 63.8 33 1.3 34.4
11:20 1019 30.09 848 25.04 17.8 64 32 1.1 33.9
11:25 1019 30.09 848 25.04 17.8 64 34 1.7 35.1
11:30 1019 30.09 848 25.04 18.1 64.6 31 0.8 33.5
11:35 1019 30.09 848 25.04 17.9 64.1 33 1.5 34.8
11:40 1019 30.09 848 25.04 18.6 65.4 32 1.6 34.8
11:45 1019 30.09 848 25.04 18.8 65.8 31 1.4 34.5
11:50 1019 30.09 848 25.04 19.2 66.5 31 1.6 34.9
11:55 1019 30.09 848 25.04 19.5 67.1 31 2 35.7
12:00 1019 30.09 848 25.04 19.8 67.6 30 2 35.6
12:05 1019 30.09 848 25.04 18.8 65.8 33 2.3 36.2
12:10 1019 30.09 848 25.04 19.1 66.3 31 1.6 35
12:15 1019 30.09 848 25.04 20 68 31 2.6 36.8
12:20 1019 30.09 848 25.04 20.5 68.9 29 2 35.6
12:25 1019 30.09 848 25.04 20.1 68.2 30 2 35.6
12:30 1018 30.06 848 25.04 20.7 69.3 27 1.2 34.1
12:35 1018 30.06 848 25.04 20.9 69.6 26 1 33.8
12:40 1018 30.06 847 25.01 21 69.7 25 0.4 32.7
12:45 1018 30.06 847 25.01 21.2 70.1 25 0.7 33.3
12:50 1018 30.06 847 25.01 21.2 70.2 25 0.6 33.1
12:55 1018 30.06 847 25.01 21.1 70.1 25 0.6 33.1
13:00 1018 30.06 847 25.01 21.2 70.1 25 0.7 33.2
13:05 1018 30.06 847 25.01 20.8 69.4 26 0.7 33.3
13:10 1018 30.06 847 25.01 20.7 69.2 27 1.2 34.2
13:15 1018 30.06 847 25.01 20.8 69.4 27 1.4 34.4
13:20 1018 30.06 847 25.01 20.9 69.6 27 1.2 34.2
13:25 1018 30.06 847 25.01 21 69.7 26 1 33.8
13:30 1018 30.06 847 25.01 21 69.9 27 1.4 34.4
13:35 1018 30.06 847 25.01 21.1 69.9 26 1.1 34
13:40 1017 30.03 847 25.01 21.3 70.4 26 1.3 34.3
13:45 1017 30.03 847 25.01 21.3 70.3 26 1 33.7
13:50 1017 30.03 846 24.98 21.5 70.7 25 1 33.7
13:55 1017 30.03 846 24.98 21.7 71 25 1.2 34.2
14:00 1017 30.03 846 24.98 21.7 71 25 1.2 34.2
14:05 1017 30.03 846 24.98 21.7 71.1 26 1.5 34.6
14:10 1017 30.03 846 24.98 21.4 70.5 26 1.3 34.3
14:15 1017 30.03 846 24.98 21.6 70.8 25 1 33.8
14:20 1017 30.03 846 24.98 21.7 71 26 1.6 35
14:25 1017 30.03 846 24.98 22 71.6 26 1.7 35
14:30 1017 30.03 846 24.98 22 71.5 25 1.2 34.2
14:35 1017 30.03 846 24.98 21.8 71.2 26 1.6 34.9
14:40 1016 30 846 24.98 21.6 70.9 27 1.8 35.2
14:45 1016 30 846 24.98 21.6 70.9 26 1.7 35.1
14:50 1016 30 846 24.98 21.6 70.9 27 1.8 35.2
14:55 1016 30 845 24.95 21.6 71 27 1.9 35.4
15:00 1016 30 845 24.95 21.9 71.4 26 1.7 35.1
15:05 1016 30 845 24.95 21.7 71 27 2.1 35.7
15:10 1016 30 845 24.95 21.8 71.2 27 2.1 35.8
15:15 1016 30 845 24.95 21.8 71.3 26 1.8 35.3
15:20 1016 30 845 24.95 21.7 71.1 27 1.9 35.4
15:25 1016 30 845 24.95 21.9 71.4 26 1.9 35.3
15:30 1016 30 845 24.95 21.7 71 26 1.6 34.8
15:35 1016 30 845 24.95 21.8 71.2 27 2 35.7
15:40 1016 30 845 24.95 21.8 71.3 26 1.6 34.8
15:45 1016 30 845 24.95 21.8 71.2 26 1.6 34.8
15:50 1016 30 845 24.95 21.7 71 26 1.7 35
15:55 1016 30 845 24.95 21.8 71.2 25 1.3 34.3
16:00 1016 30 845 24.95 21.7 71.1 26 1.6 34.9
16:05 1016 30 845 24.95 22 71.5 26 1.7 35
16:10 1016 30 845 24.95 21.8 71.3 26 1.8 35.3
16:15 1016 30 845 24.95 21.9 71.4 26 1.7 35
16:20 1016 30 845 24.95 21.8 71.3 26 1.8 35.2
16:25 1016 30 845 24.95 21.9 71.3 26 1.7 35.1
16:30 1016 30 845 24.95 21.7 71.1 26 1.5 34.8
16:35 1016 30 845 24.95 21.8 71.3 26 1.7 35
16:40 1016 30 845 24.95 21.9 71.3 26 1.9 35.4
16:45 1016 30 845 24.95 22 71.6 26 2 35.6
16:50 1016 30 845 24.95 22 71.5 26 1.7 35.1
16:55 1016 30 845 24.95 21.9 71.4 26 1.5 34.7
17:00 1016 30 845 24.95 21.6 70.8 27 1.8 35.3
17:05 1016 30 845 24.95 21.5 70.7 27 2.1 35.8
17:10 1016 30 845 24.95 21.4 70.6 27 1.9 35.5
17:15 1016 30 845 24.95 21.5 70.6 27 2 35.6
17:20 1015 29.97 845 24.95 21.4 70.6 27 2 35.7
17:25 1015 29.97 845 24.95 20.9 69.6 28 2 35.6
17:30 1015 29.97 845 24.95 20.7 69.3 28 1.9 35.4
17:35 1015 29.97 845 24.95 20.8 69.4 28 1.9 35.4
17:40 1015 29.97 845 24.95 20.7 69.3 28 1.8 35.2
17:45 1015 29.97 845 24.95 20.7 69.3 27 1.5 34.7
17:50 1015 29.97 845 24.95 20.5 69 28 1.7 35
17:55 1015 29.97 845 24.95 20.3 68.5 29 1.7 35
18:00 1015 29.97 845 24.95 20.1 68.2 29 1.8 35.2
18:05 1015 29.97 845 24.95 19.9 67.8 29 1.6 34.9
18:10 1015 29.97 845 24.95 19.7 67.4 30 1.7 35
18:15 1015 29.97 845 24.95 19.4 66.9 29 1.3 34.3
18:20 1015 29.97 845 24.95 19.2 66.6 30 1.5 34.7
18:25 1015 29.97 845 24.95 19 66.2 31 1.5 34.6
18:30 1015 29.97 845 24.95 18.9 66 31 1.6 34.8
18:35 1015 29.97 845 24.95 18.5 65.2 32 1.7 35.1
18:40 1015 29.97 845 24.95 18.1 64.6 33 1.7 35
18:45 1015 29.97 845 24.95 18 64.5 32 1.4 34.5
18:50 1015 29.97 845 24.95 17.8 64.1 34 1.7 35.1
18:55 1015 29.97 845 24.95 17.6 63.7 33 1.3 34.4
19:00 1015 29.97 845 24.95 17.5 63.5 34 1.7 35
19:05 1015 29.97 845 24.95 17 62.5 35 1.4 34.4
19:10 1015 29.97 845 24.95 16.3 61.3 37 1.8 35.3
19:15 1015 29.97 845 24.95 16.3 61.3 36 1.3 34.3
19:20 1015 29.97 845 24.95 16.1 61.1 38 1.7 35.1
19:25 1016 30 845 24.95 16.1 61 36 1 33.8
19:30 1015 29.97 845 24.95 16.2 61.1 35 0.9 33.6
19:35 1015 29.97 845 24.95 16.1 61 36 1 33.8
19:40 1015 29.97 845 24.95 16.1 61 34 0.3 32.6
19:45 1015 29.97 845 24.95 16.7 62 34 0.6 33.1
19:50 1015 29.97 845 24.95 16.2 61.2 35 0.8 33.5
19:55 1015 29.97 845 24.95 16 60.7 35 0.6 33
20:00 1015 29.97 845 24.95 16 60.8 34 0.4 32.8
20:05 1015 29.97 845 24.95 16.1 61 34 0.5 32.9
20:10 1015 29.97 845 24.95 15.8 60.4 35 0.6 33.1
20:15 1015 29.97 845 24.95 15.5 59.9 37 0.8 33.5
20:20 1015 29.97 845 24.95 15.3 59.5 36 0.5 33
20:25 1015 29.97 845 24.95 15.3 59.6 37 0.6 33.1
20:30 1015 29.97 845 24.95 15.3 59.6 35 0.2 32.4
20:35 1015 29.97 845 24.95 15.8 60.5 34 -0.1 31.8
20:40 1015 29.97 845 24.95 16.2 61.2 34 0.2 32.4
20:45 1015 29.97 845 24.95 16 60.7 35 0.5 32.8
20:50 1015 29.97 845 24.95 15.3 59.6 35 0.2 32.4
20:55 1015 29.97 845 24.95 15.8 60.4 34 0.2 32.4
21:00 1015 29.97 845 24.95 16 60.7 34 0.2 32.3
21:05 1015 29.97 845 24.95 16.3 61.3 33 -0 32
21:10 1015 29.97 845 24.95 16.3 61.3 34 0.4 32.7
21:15 1015 29.97 845 24.95 15.9 60.6 35 0.4 32.7
21:20 1015 29.97 845 24.95 15.9 60.5 35 0.3 32.6
21:25 1015 29.97 845 24.95 15.6 60 35 0.2 32.4
21:30 1015 29.97 845 24.95 15.3 59.6 36 0.5 32.9
21:35 1015 29.97 845 24.95 15.1 59.1 37 0.7 33.2
21:40 1015 29.97 845 24.95 14.6 58.3 39 0.8 33.4
21:45 1015 29.97 845 24.95 14.5 58.1 38 0.5 32.9
21:50 1015 29.97 845 24.95 14.8 58.6 37 0.3 32.5
21:55 1015 29.97 845 24.95 14.9 58.8 37 0.3 32.5
22:00 1015 29.97 845 24.95 15 59 37 0.4 32.7
22:05 1016 30 845 24.95 14.8 58.7 37 0.4 32.8
22:10 1015 29.97 845 24.95 14.6 58.2 38 0.5 32.9
22:15 1015 29.97 845 24.95 14.7 58.4 37 0.2 32.4
22:20 1015 29.97 845 24.95 14.6 58.2 40 1.1 33.9
22:25 1016 30 845 24.95 13.8 56.9 40 0.6 33
22:30 1016 30 845 24.95 14 57.1 40 0.5 32.9
22:35 1015 29.97 845 24.95 14.1 57.3 39 0.5 32.9
22:40 1015 29.97 845 24.95 14.1 57.3 40 0.7 33.2
22:45 1015 29.97 845 24.95 13.9 56.9 40 0.6 33
22:50 1016 30 845 24.95 14.1 57.4 39 0.5 32.9
22:55 1016 30 845 24.95 14.1 57.4 40 0.6 33.2
23:00 1016 30 845 24.95 13.9 56.9 41 0.8 33.4
23:05 1016 30 845 24.95 13.9 56.9 39 0.2 32.3
23:10 1016 30 845 24.95 14.2 57.5 39 0.4 32.7
23:15 1015 29.97 845 24.95 14.2 57.6 38 0.2 32.4
23:20 1015 29.97 845 24.95 14.3 57.7 38 0.4 32.7
23:25 1015 29.97 845 24.95 14.4 57.9 37 -0 31.9
23:30 1015 29.97 844 24.92 14.9 58.8 36 0 32.1
23:35 1015 29.97 845 24.95 14.8 58.7 37 0.4 32.8
23:40 1015 29.97 844 24.92 14.5 58.1 38 0.3 32.6
23:45 1015 29.97 844 24.92 14.4 57.9 39 0.6 33.1
23:50 1015 29.97 844 24.92 14.2 57.5 39 0.6 33.2
23:55 1015 29.97 844 24.92 13.8 56.9 41 0.9 33.7
24:00 1015 29.97 844 24.92 13.4 56.1 43 1.2 34.1